createdAt,value
2022-09-26T00:02:42.217Z,33.30
2022-09-26T00:07:46.080Z,30.50
2022-09-26T00:12:49.838Z,27.15
2022-09-26T00:17:54.957Z,28.80
2022-09-26T00:22:58.910Z,28.50
2022-09-26T00:28:03.175Z,28.73
2022-09-26T00:33:08.501Z,29.00
2022-09-26T00:38:12.354Z,27.07
2022-09-26T00:43:38.088Z,28.65
2022-09-26T00:48:43.752Z,28.10
2022-09-26T00:53:50.183Z,24.63
2022-09-26T00:58:58.000Z,31.88
2022-09-26T01:04:04.214Z,27.98
2022-09-26T01:14:14.406Z,31.48
2022-09-26T01:19:25.216Z,33.57
2022-09-26T01:24:50.310Z,33.13
2022-09-26T01:30:14.626Z,34.22
2022-09-26T01:35:32.200Z,28.35
2022-09-26T01:40:43.698Z,31.38
2022-09-26T01:45:52.820Z,32.47
2022-09-26T01:50:59.627Z,30.70
2022-09-26T01:56:05.476Z,31.38
2022-09-26T02:01:13.681Z,26.77
2022-09-26T02:06:20.628Z,28.20
2022-09-26T02:11:25.654Z,29.52
2022-09-26T02:16:36.135Z,28.50
2022-09-26T02:21:40.136Z,27.48
2022-09-26T02:26:44.162Z,23.10
2022-09-26T02:31:53.101Z,24.77
2022-09-26T02:36:58.134Z,27.52
2022-09-26T02:42:11.397Z,27.75
2022-09-26T02:47:56.565Z,23.77
2022-09-26T02:53:08.715Z,29.90
2022-09-26T02:58:23.005Z,21.58
2022-09-26T03:03:33.310Z,24.92
2022-09-26T03:08:43.843Z,23.50
2022-09-26T03:13:48.987Z,21.63
2022-09-26T03:18:56.482Z,26.50
2022-09-26T03:24:01.896Z,24.05
2022-09-26T03:29:06.360Z,28.20
2022-09-26T03:34:12.433Z,27.88
2022-09-26T03:39:18.071Z,24.33
2022-09-26T03:44:26.943Z,26.90
2022-09-26T03:49:49.201Z,26.42
2022-09-26T03:54:54.610Z,25.63
2022-09-26T03:59:58.680Z,28.58
2022-09-26T04:05:09.048Z,22.40
2022-09-26T04:10:15.147Z,24.23
2022-09-26T04:15:20.728Z,31.48
2022-09-26T04:20:27.578Z,22.48
2022-09-26T04:25:33.368Z,26.25
2022-09-26T04:30:40.140Z,19.47
2022-09-26T04:35:44.901Z,24.27
2022-09-26T04:40:50.264Z,28.80
2022-09-26T04:45:54.164Z,28.50
2022-09-26T04:50:58.562Z,23.67
2022-09-26T04:56:04.355Z,24.25
2022-09-26T05:01:10.909Z,22.55
2022-09-26T05:06:39.338Z,27.23
2022-09-26T05:11:48.547Z,24.15
2022-09-26T05:16:52.510Z,25.17
2022-09-26T05:21:56.356Z,26.40
2022-09-26T05:27:02.657Z,20.67
2022-09-26T05:32:07.058Z,20.73
2022-09-26T05:37:14.284Z,39.05
2022-09-26T05:42:20.479Z,20.50
2022-09-26T05:47:31.393Z,22.50
2022-09-26T05:52:37.164Z,17.52
2022-09-26T05:57:51.639Z,26.00
2022-09-26T06:02:57.723Z,19.58
2022-09-26T06:08:11.880Z,18.70
2022-09-26T06:13:21.700Z,19.63
2022-09-26T06:18:29.260Z,20.27
2022-09-26T06:23:34.320Z,25.45
2022-09-26T06:28:40.910Z,18.80
2022-09-26T06:33:44.959Z,22.17
2022-09-26T06:38:58.331Z,18.75
2022-09-26T06:44:06.923Z,20.60
2022-09-26T06:49:25.111Z,19.88
2022-09-26T06:54:38.948Z,18.73
2022-09-26T06:59:44.243Z,16.73
2022-09-26T07:05:03.423Z,19.80
2022-09-26T07:10:11.090Z,22.73
2022-09-26T07:15:21.016Z,18.17
2022-09-26T07:20:25.492Z,24.58
2022-09-26T07:25:33.432Z,19.27
2022-09-26T07:30:40.187Z,16.20
2022-09-26T07:35:50.696Z,20.15
2022-09-26T07:40:56.194Z,22.77
2022-09-26T07:46:18.697Z,19.88
2022-09-26T07:51:26.296Z,14.15
2022-09-26T07:56:34.566Z,25.30
2022-09-26T08:02:23.379Z,17.42
2022-09-26T08:07:28.022Z,16.88
2022-09-26T08:12:46.373Z,17.05
2022-09-26T08:18:20.726Z,13.70
2022-09-26T08:23:25.393Z,13.48
2022-09-26T08:28:47.689Z,12.02
2022-09-26T08:33:53.344Z,10.98
2022-09-26T08:38:59.542Z,12.98
2022-09-26T08:44:33.615Z,15.15
2022-09-26T08:50:12.905Z,11.75
2022-09-26T08:55:18.859Z,16.20
2022-09-26T09:00:24.932Z,10.73
2022-09-26T09:05:45.154Z,14.57
2022-09-26T09:10:56.731Z,12.18
2022-09-26T09:16:17.579Z,15.95
2022-09-26T09:21:42.771Z,7.57
2022-09-26T09:32:42.164Z,14.25
2022-09-26T09:38:18.300Z,12.73
2022-09-26T09:43:44.018Z,8.63
2022-09-26T09:48:48.976Z,7.70
2022-09-26T09:54:14.207Z,8.88
2022-09-26T09:59:26.722Z,7.43
2022-09-26T10:04:56.283Z,7.18
2022-09-26T10:10:01.572Z,9.38
2022-09-26T10:20:53.501Z,8.63
2022-09-26T10:26:03.321Z,8.93
2022-09-26T10:31:10.852Z,8.43
2022-09-26T10:36:41.374Z,10.43
2022-09-26T10:41:48.160Z,9.38
2022-09-26T10:46:56.649Z,9.63
2022-09-26T10:52:24.893Z,5.47
2022-09-26T10:57:34.790Z,5.82
2022-09-26T11:02:47.210Z,11.27
2022-09-26T11:07:54.169Z,6.95
2022-09-26T11:13:21.055Z,7.53
2022-09-26T11:18:42.025Z,7.25
2022-09-26T11:23:50.253Z,9.23
2022-09-26T11:29:03.907Z,7.25
2022-09-26T11:34:31.834Z,6.45
2022-09-26T11:39:51.702Z,9.52
2022-09-26T11:44:58.617Z,7.18
2022-09-26T11:50:40.836Z,10.02
2022-09-26T11:56:01.220Z,10.02
2022-09-26T12:01:17.032Z,6.88
2022-09-26T12:06:27.401Z,11.35
2022-09-26T12:11:37.769Z,6.32
2022-09-26T12:16:51.976Z,10.27
2022-09-26T12:22:18.459Z,8.60
2022-09-26T12:27:26.898Z,8.70
2022-09-26T12:32:47.001Z,9.95
2022-09-26T12:38:33.603Z,12.68
2022-09-26T12:44:12.419Z,9.75
2022-09-26T12:49:41.863Z,5.43
2022-09-26T12:54:59.168Z,6.78
2022-09-26T13:00:13.872Z,8.77
2022-09-26T13:05:38.141Z,6.35
2022-09-26T13:10:50.619Z,5.97
2022-09-26T13:16:06.710Z,7.40
2022-09-26T13:21:14.980Z,5.88
2022-09-26T13:26:22.854Z,11.93
2022-09-26T13:31:32.720Z,6.57
2022-09-26T13:36:38.817Z,8.10
2022-09-26T13:41:48.469Z,10.07
2022-09-26T13:47:01.431Z,7.65
2022-09-26T13:52:17.367Z,7.60
2022-09-26T13:57:40.707Z,3.83
2022-09-26T14:03:19.435Z,7.57
2022-09-26T14:08:49.354Z,9.93
2022-09-26T14:14:24.270Z,6.78
2022-09-26T14:19:32.567Z,5.88
2022-09-26T14:24:39.579Z,5.43
2022-09-26T14:29:49.200Z,4.88
2022-09-26T14:34:57.503Z,7.85
2022-09-26T14:40:25.654Z,8.57
2022-09-26T14:45:48.291Z,6.40
2022-09-26T14:50:55.379Z,5.47
2022-09-26T14:56:02.762Z,8.38
2022-09-26T15:01:12.236Z,7.00
2022-09-26T15:06:16.131Z,9.25
2022-09-26T15:11:28.374Z,3.85
2022-09-26T15:16:37.513Z,9.52
2022-09-26T15:21:44.004Z,9.73
2022-09-26T15:26:50.543Z,10.57
2022-09-26T15:31:56.033Z,9.05
2022-09-26T15:42:36.928Z,8.50
2022-09-26T15:47:42.641Z,12.43
2022-09-26T15:57:54.475Z,12.77
2022-09-26T16:02:58.828Z,18.65
2022-09-26T16:08:02.976Z,13.30
2022-09-26T16:13:22.360Z,15.70
2022-09-26T16:18:27.336Z,14.85
2022-09-26T16:23:45.945Z,14.83
2022-09-26T16:28:53.782Z,12.23
2022-09-26T16:33:59.451Z,12.35
2022-09-26T16:39:04.328Z,11.82
2022-09-26T16:44:26.237Z,12.33
2022-09-26T16:49:46.206Z,11.70
2022-09-26T16:54:50.486Z,14.75
2022-09-26T17:00:15.816Z,14.52
2022-09-26T17:05:21.400Z,14.53
2022-09-26T17:10:26.572Z,15.77
2022-09-26T17:15:32.856Z,18.45
2022-09-26T17:20:36.766Z,18.90
2022-09-26T17:25:40.940Z,12.07
2022-09-26T17:30:46.629Z,15.55
2022-09-26T17:35:50.442Z,13.05
2022-09-26T17:40:54.427Z,12.05
2022-09-26T17:45:59.943Z,13.60
2022-09-26T17:51:06.102Z,17.40
2022-09-26T17:56:12.801Z,10.82
2022-09-26T18:01:23.444Z,11.73
2022-09-26T18:06:31.473Z,13.25
2022-09-26T18:11:36.384Z,14.70
2022-09-26T18:16:42.432Z,15.02
2022-09-26T18:21:46.244Z,17.50
2022-09-26T18:26:50.993Z,16.67
2022-09-26T18:31:56.758Z,18.52
2022-09-26T18:37:01.875Z,19.58
2022-09-26T18:42:09.334Z,16.10
2022-09-26T18:47:19.006Z,15.30
2022-09-26T18:52:22.797Z,24.23
2022-09-26T18:57:44.172Z,20.08
2022-09-26T19:02:50.650Z,14.00
2022-09-26T19:07:54.772Z,20.35
2022-09-26T19:12:59.510Z,12.77
2022-09-26T19:18:04.890Z,16.27
2022-09-26T19:23:10.502Z,14.55
2022-09-26T19:28:16.503Z,10.10
2022-09-26T19:33:22.575Z,16.83
2022-09-26T19:43:30.456Z,13.70
2022-09-26T19:48:38.858Z,13.27
2022-09-26T19:53:43.113Z,17.40
2022-09-26T19:58:48.679Z,10.40
2022-09-26T20:03:54.063Z,14.48
2022-09-26T20:09:01.687Z,16.38
2022-09-26T20:14:23.554Z,10.88
2022-09-26T20:19:36.341Z,9.15
2022-09-26T20:24:40.751Z,12.77
2022-09-26T20:30:02.281Z,11.30
2022-09-26T20:35:10.141Z,11.88
2022-09-26T20:40:18.161Z,11.05
2022-09-26T20:45:25.985Z,10.45
2022-09-26T20:50:34.187Z,11.18
2022-09-26T20:55:43.241Z,10.85
2022-09-26T21:00:48.303Z,11.93
2022-09-26T21:05:53.548Z,11.10
2022-09-26T21:10:58.012Z,9.70
2022-09-26T21:16:02.332Z,8.88
2022-09-26T21:21:11.159Z,8.50
2022-09-26T21:26:38.103Z,11.57
2022-09-26T21:31:44.840Z,12.00
2022-09-26T21:36:50.809Z,9.98
2022-09-26T21:46:59.283Z,10.10
2022-09-26T21:52:07.670Z,9.15
2022-09-26T21:57:13.670Z,9.25
2022-09-26T22:07:23.195Z,12.38
2022-09-26T22:17:30.719Z,15.52
2022-09-26T22:22:36.137Z,13.57
2022-09-26T22:27:40.027Z,11.03
2022-09-26T22:32:44.071Z,10.30
2022-09-26T22:37:50.669Z,9.90
2022-09-26T22:42:54.514Z,11.57
2022-09-26T22:47:58.375Z,10.55
2022-09-26T22:53:03.655Z,11.20
2022-09-26T22:58:07.688Z,10.25
2022-09-26T23:03:11.662Z,11.63
2022-09-26T23:08:16.943Z,12.57
2022-09-26T23:13:20.950Z,10.93
2022-09-26T23:18:24.830Z,12.80
2022-09-26T23:23:30.163Z,12.77
2022-09-26T23:28:34.907Z,10.87
2022-09-26T23:33:38.933Z,9.63
2022-09-26T23:38:45.261Z,9.43
2022-09-26T23:43:49.299Z,9.20
2022-09-26T23:48:53.627Z,8.25
2022-09-26T23:53:59.110Z,8.95
2022-09-26T23:59:03.202Z,8.68
